Time;durP1;ratioP1;P1;durP2;ratioP2;P2;SDS_P1;SDS_P2;PMS_P1;PMS_P2;Temp;Humidity;BMP_temperature;BMP_pressure;BME280_temperature;BME280_humidity;BME280_pressure;Samples;Min_cycle;Max_cycle;Signal;HPM_P1;HPM_P2
2023/12/19 00:00:26;;;;;;;32.88;18.77;;;7.10;99.90;;;;;;5018791;28;89830;-28
2023/12/19 00:02:51;;;;;;;32.00;19.30;;;7.10;99.90;;;;;;5019649;27;89607;-27
2023/12/19 00:05:17;;;;;;;36.30;19.17;;;7.10;99.90;;;;;;5018409;28;89760;-33
2023/12/19 00:07:43;;;;;;;38.92;21.83;;;7.10;99.90;;;;;;5019297;28;89860;-31
2023/12/19 00:10:08;;;;;;;35.83;20.25;;;7.10;99.90;;;;;;5018418;28;89268;-33
2023/12/19 00:12:34;;;;;;;37.72;20.33;;;7.10;99.90;;;;;;5019227;28;89986;-28
2023/12/19 00:14:59;;;;;;;28.60;19.08;;;7.10;99.90;;;;;;5017813;28;90886;-28
2023/12/19 00:17:25;;;;;;;30.75;18.05;;;7.10;99.90;;;;;;5018322;28;90577;-31
2023/12/19 00:19:51;;;;;;;28.55;19.90;;;7.20;99.90;;;;;;5018400;28;89237;-29
2023/12/19 00:22:16;;;;;;;31.83;20.40;;;7.20;99.90;;;;;;5018276;27;89546;-32
2023/12/19 00:24:42;;;;;;;36.95;15.18;;;7.20;99.90;;;;;;5018063;28;89874;-29
2023/12/19 00:27:07;;;;;;;27.10;16.30;;;7.20;99.90;;;;;;5018468;28;89683;-31
2023/12/19 00:29:33;;;;;;;21.88;14.20;;;7.10;99.90;;;;;;5019444;27;89530;-28
2023/12/19 00:31:59;;;;;;;30.67;17.58;;;7.20;99.90;;;;;;5018323;28;90251;-28
2023/12/19 00:34:24;;;;;;;25.48;16.25;;;7.10;99.90;;;;;;5018359;28;88711;-30
2023/12/19 00:36:50;;;;;;;31.23;16.42;;;7.10;99.90;;;;;;5018457;28;90116;-29
2023/12/19 00:39:16;;;;;;;21.50;12.82;;;7.10;99.90;;;;;;5017206;28;90610;-29
2023/12/19 00:41:42;;;;;;;21.52;13.70;;;7.20;99.90;;;;;;5019010;27;90640;-28
2023/12/19 00:44:08;;;;;;;22.38;13.27;;;7.10;99.90;;;;;;5018257;27;89772;-29
2023/12/19 00:46:33;;;;;;;24.05;14.13;;;7.10;99.90;;;;;;5018285;28;89971;-29
2023/12/19 00:48:59;;;;;;;28.25;17.20;;;7.10;99.90;;;;;;5017202;28;90185;-28
2023/12/19 00:51:24;;;;;;;23.15;17.58;;;7.10;99.90;;;;;;5018770;28;90623;-31
2023/12/19 00:53:50;;;;;;;26.25;14.65;;;7.10;99.90;;;;;;5018433;28;89417;-30
2023/12/19 00:56:16;;;;;;;28.58;15.07;;;7.10;99.90;;;;;;5018511;28;88614;-31
2023/12/19 00:58:43;;;;;;;26.15;14.25;;;7.10;99.90;;;;;;5018373;28;89633;-28
2023/12/19 01:01:09;;;;;;;25.75;13.55;;;7.10;99.90;;;;;;5017314;28;90492;-30
2023/12/19 01:03:35;;;;;;;17.10;10.40;;;7.10;99.90;;;;;;5017490;28;91315;-31
2023/12/19 01:06:02;;;;;;;24.63;14.15;;;7.10;99.90;;;;;;5018340;27;89163;-28
2023/12/19 01:08:28;;;;;;;27.58;15.32;;;7.20;99.90;;;;;;5016581;28;90128;-29
2023/12/19 01:10:54;;;;;;;20.73;13.45;;;7.20;99.90;;;;;;5018202;27;90439;-29
2023/12/19 01:13:20;;;;;;;20.02;14.95;;;7.10;99.90;;;;;;5017108;28;89352;-29
2023/12/19 01:15:47;;;;;;;26.08;14.20;;;7.10;99.90;;;;;;5017836;28;89644;-28
2023/12/19 01:18:12;;;;;;;20.70;12.65;;;7.10;99.90;;;;;;5018231;28;89872;-28
2023/12/19 01:20:39;;;;;;;24.38;15.23;;;7.10;99.90;;;;;;5018490;28;90109;-29
2023/12/19 01:23:05;;;;;;;21.52;11.82;;;7.10;99.90;;;;;;5017460;27;89414;-29
2023/12/19 01:25:31;;;;;;;25.98;16.08;;;7.10;99.90;;;;;;5018015;28;89166;-30
2023/12/19 01:27:56;;;;;;;21.95;14.35;;;7.10;99.90;;;;;;5016759;28;90437;-28
2023/12/19 01:30:22;;;;;;;18.73;12.23;;;7.10;99.90;;;;;;5018487;28;90367;-32
2023/12/19 01:32:48;;;;;;;19.90;13.48;;;7.10;99.90;;;;;;5017254;27;89426;-31
2023/12/19 01:35:14;;;;;;;22.38;13.52;;;7.10;99.90;;;;;;5015742;28;90100;-29
2023/12/19 01:37:42;;;;;;;19.38;12.52;;;7.10;99.90;;;;;;5017982;28;88320;-29
2023/12/19 01:40:08;;;;;;;20.67;12.43;;;7.00;99.90;;;;;;5017072;27;90091;-30
2023/12/19 01:42:34;;;;;;;20.02;12.98;;;7.10;99.90;;;;;;5017483;27;90290;-28
2023/12/19 01:45:10;;;;;;;16.58;10.88;;;7.00;99.90;;;;;;5018114;28;89827;-30
2023/12/19 01:47:43;;;;;;;18.20;11.88;;;7.00;99.90;;;;;;5017677;28;89729;-30
2023/12/19 01:50:12;;;;;;;18.30;11.63;;;7.00;99.90;;;;;;5017038;27;89949;-30
2023/12/19 01:52:43;;;;;;;17.23;11.68;;;7.00;99.90;;;;;;5018072;27;91399;-29
2023/12/19 01:55:10;;;;;;;16.85;10.10;;;7.00;99.90;;;;;;5017535;27;90314;-30
2023/12/19 01:57:36;;;;;;;15.25;10.30;;;7.00;99.90;;;;;;5018443;27;88267;-29
2023/12/19 02:00:03;;;;;;;17.08;9.27;;;7.00;99.90;;;;;;5014984;27;91839;-29
2023/12/19 02:02:29;;;;;;;14.38;10.73;;;7.00;99.90;;;;;;5021516;27;89487;-33
2023/12/19 02:04:57;;;;;;;16.27;10.98;;;7.00;99.90;;;;;;5020103;28;89738;-31
2023/12/19 02:07:22;;;;;;;17.20;11.13;;;7.00;99.90;;;;;;5021137;27;89794;-32
2023/12/19 02:09:48;;;;;;;19.42;11.07;;;6.90;99.90;;;;;;5020972;28;90513;-32
2023/12/19 02:12:14;;;;;;;17.75;11.88;;;7.00;99.90;;;;;;5020483;27;89268;-29
2023/12/19 02:14:42;;;;;;;13.60;8.88;;;6.90;99.90;;;;;;5020073;28;91195;-30
2023/12/19 02:17:08;;;;;;;16.42;9.82;;;6.90;99.90;;;;;;5020820;27;90492;-31
2023/12/19 02:19:45;;;;;;;16.05;9.43;;;6.90;99.90;;;;;;5021185;28;91781;-29
2023/12/19 02:22:11;;;;;;;16.27;11.50;;;6.90;99.90;;;;;;5021296;27;88976;-29
2023/12/19 02:24:37;;;;;;;15.40;10.18;;;7.00;99.90;;;;;;5019885;27;89262;-29
2023/12/19 02:27:03;;;;;;;15.95;11.23;;;7.00;99.90;;;;;;5021255;27;88881;-31
2023/12/19 02:29:29;;;;;;;15.38;9.70;;;6.90;99.90;;;;;;5020120;27;90209;-30
2023/12/19 02:31:55;;;;;;;16.75;10.30;;;6.90;99.90;;;;;;5021732;28;88655;-30
2023/12/19 02:34:21;;;;;;;15.38;9.95;;;6.90;99.90;;;;;;5020339;28;89861;-29
2023/12/19 02:36:46;;;;;;;16.85;10.90;;;7.00;99.90;;;;;;5021426;27;88525;-30
2023/12/19 02:39:12;;;;;;;16.08;11.40;;;6.90;99.90;;;;;;5018093;28;90115;-28
2023/12/19 02:41:37;;;;;;;20.52;11.73;;;6.90;99.90;;;;;;5020038;28;89399;-30
2023/12/19 02:44:03;;;;;;;13.80;9.82;;;6.90;99.90;;;;;;5020056;28;89452;-30
2023/12/19 02:46:29;;;;;;;17.90;10.23;;;6.90;99.90;;;;;;5020863;27;87952;-29
2023/12/19 02:48:54;;;;;;;17.55;11.85;;;6.90;99.90;;;;;;5020047;28;90161;-30
2023/12/19 02:51:21;;;;;;;23.10;12.43;;;6.90;99.90;;;;;;5020436;28;89292;-29
2023/12/19 02:53:47;;;;;;;18.52;11.90;;;6.90;99.90;;;;;;5019556;27;89521;-31
2023/12/19 02:56:12;;;;;;;15.35;11.30;;;6.90;99.90;;;;;;5020890;27;89313;-29
2023/12/19 02:58:39;;;;;;;14.15;11.02;;;6.90;99.90;;;;;;5019928;28;90495;-31
2023/12/19 03:01:08;;;;;;;16.17;9.73;;;6.90;99.90;;;;;;5019927;28;89703;-30
2023/12/19 03:03:34;;;;;;;12.00;9.35;;;6.90;99.90;;;;;;5020602;27;89540;-29
2023/12/19 03:06:00;;;;;;;13.00;11.05;;;6.90;99.90;;;;;;5020287;27;89701;-32
2023/12/19 03:08:26;;;;;;;13.73;8.50;;;6.90;99.90;;;;;;5020091;27;89965;-29
2023/12/19 03:10:52;;;;;;;13.68;10.10;;;6.90;99.90;;;;;;5020332;27;89682;-29
2023/12/19 03:13:18;;;;;;;12.50;9.02;;;6.90;99.90;;;;;;5018722;27;89133;-28
2023/12/19 03:15:43;;;;;;;12.82;8.35;;;6.90;99.90;;;;;;5020474;27;89587;-30
2023/12/19 03:18:09;;;;;;;12.75;9.50;;;6.90;99.90;;;;;;5020200;27;90019;-29
2023/12/19 03:20:35;;;;;;;13.23;9.77;;;6.90;99.90;;;;;;5020052;28;88645;-30
2023/12/19 03:23:01;;;;;;;15.10;9.52;;;6.90;99.90;;;;;;5018871;28;88605;-30
2023/12/19 03:25:27;;;;;;;11.95;10.15;;;6.90;99.90;;;;;;5019894;28;90034;-29
2023/12/19 03:27:52;;;;;;;11.98;8.45;;;6.90;99.90;;;;;;5020131;27;90545;-35
2023/12/19 03:30:18;;;;;;;11.60;7.95;;;6.90;99.90;;;;;;5019752;28;90802;-30
2023/12/19 03:32:44;;;;;;;14.50;8.35;;;6.90;99.90;;;;;;5019621;28;90571;-31
2023/12/19 03:35:11;;;;;;;13.05;9.07;;;6.90;99.90;;;;;;5020920;28;88242;-30
2023/12/19 03:37:37;;;;;;;9.57;7.60;;;6.90;99.90;;;;;;5020028;28;91882;-28
2023/12/19 03:40:04;;;;;;;11.90;7.72;;;6.90;99.90;;;;;;5019265;28;89396;-31
2023/12/19 03:42:30;;;;;;;11.60;6.75;;;6.90;99.90;;;;;;5019916;27;89795;-30
2023/12/19 03:44:55;;;;;;;10.80;7.88;;;6.90;99.90;;;;;;5019695;28;87651;-29
2023/12/19 03:47:21;;;;;;;12.35;7.20;;;6.90;99.90;;;;;;5020642;28;90661;-30
2023/12/19 03:49:46;;;;;;;12.13;8.10;;;6.90;99.90;;;;;;5019973;27;90419;-30
2023/12/19 03:52:12;;;;;;;14.50;8.10;;;6.90;99.90;;;;;;5019501;28;89075;-28
2023/12/19 03:54:37;;;;;;;11.50;7.13;;;6.90;99.90;;;;;;5020029;27;88709;-28
2023/12/19 03:57:03;;;;;;;9.65;6.75;;;6.90;99.90;;;;;;5018917;28;89988;-30
2023/12/19 03:59:29;;;;;;;17.73;10.27;;;6.90;99.90;;;;;;5019882;27;89757;-29
2023/12/19 04:01:56;;;;;;;7.72;6.25;;;6.90;99.90;;;;;;5018768;28;89942;-30
2023/12/19 04:04:22;;;;;;;12.55;7.50;;;6.90;99.90;;;;;;5019606;27;89624;-32
2023/12/19 04:06:47;;;;;;;11.63;8.90;;;7.00;99.90;;;;;;5020271;28;90085;-30
2023/12/19 04:09:13;;;;;;;12.55;8.95;;;6.90;99.90;;;;;;5019496;27;89644;-29
2023/12/19 04:11:46;;;;;;;11.40;10.00;;;6.90;99.90;;;;;;5019915;28;89760;-32
2023/12/19 04:14:12;;;;;;;11.38;9.18;;;7.00;99.90;;;;;;5018651;27;88329;-28
2023/12/19 04:16:38;;;;;;;10.93;7.22;;;7.00;99.90;;;;;;5019457;27;90352;-32
2023/12/19 04:19:04;;;;;;;12.95;7.70;;;7.00;99.90;;;;;;5018007;28;90537;-30
2023/12/19 04:21:29;;;;;;;12.07;8.93;;;7.00;99.90;;;;;;5019153;28;90908;-31
2023/12/19 04:23:55;;;;;;;15.52;7.72;;;7.00;99.90;;;;;;5018723;27;88790;-31
2023/12/19 04:26:20;;;;;;;10.18;7.53;;;7.00;99.90;;;;;;5018888;27;90154;-32
2023/12/19 04:28:47;;;;;;;12.95;9.35;;;7.00;99.90;;;;;;5019339;28;89578;-29
2023/12/19 04:31:12;;;;;;;11.10;8.93;;;7.00;99.90;;;;;;5018622;28;90487;-28
2023/12/19 04:33:38;;;;;;;14.00;10.02;;;7.00;99.90;;;;;;5019929;28;90531;-29
2023/12/19 04:36:06;;;;;;;11.68;7.18;;;7.00;99.90;;;;;;5017945;28;89977;-31
2023/12/19 04:38:32;;;;;;;10.52;8.68;;;7.00;99.90;;;;;;5018616;27;89628;-29
2023/12/19 04:40:58;;;;;;;10.80;6.88;;;7.00;99.90;;;;;;5019031;28;90065;-29
2023/12/19 04:43:24;;;;;;;10.65;7.28;;;7.00;99.90;;;;;;5019192;27;90090;-30
2023/12/19 04:45:50;;;;;;;11.27;6.53;;;7.00;99.90;;;;;;5018781;28;89706;-29
2023/12/19 04:48:16;;;;;;;14.40;8.15;;;7.00;99.90;;;;;;5018951;27;89836;-29
2023/12/19 04:50:42;;;;;;;12.40;8.00;;;7.00;99.90;;;;;;5018329;27;89531;-29
2023/12/19 04:53:10;;;;;;;8.65;5.85;;;7.00;99.90;;;;;;5018961;27;89275;-30
2023/12/19 04:55:36;;;;;;;10.18;8.23;;;7.00;99.90;;;;;;5018897;27;90358;-30
2023/12/19 04:58:02;;;;;;;10.30;7.55;;;7.00;99.90;;;;;;5019156;28;89849;-32
2023/12/19 05:00:27;;;;;;;12.80;6.90;;;7.00;99.90;;;;;;5019121;28;89725;-28
2023/12/19 05:02:53;;;;;;;13.93;7.95;;;7.00;99.90;;;;;;5019352;28;88480;-30
2023/12/19 05:05:22;;;;;;;10.05;6.68;;;7.00;99.90;;;;;;5018544;27;90403;-30
2023/12/19 05:07:47;;;;;;;8.23;5.70;;;7.00;99.90;;;;;;5017756;28;90661;-32
2023/12/19 05:10:13;;;;;;;8.45;5.85;;;7.00;99.90;;;;;;5018756;28;90592;-29
2023/12/19 05:12:39;;;;;;;8.15;5.88;;;7.00;99.90;;;;;;5018632;27;89423;-31
2023/12/19 05:15:05;;;;;;;6.28;5.28;;;7.00;99.90;;;;;;5018548;28;89769;-29
2023/12/19 05:17:31;;;;;;;9.35;6.70;;;7.00;99.90;;;;;;5019210;27;89393;-31
2023/12/19 05:19:58;;;;;;;7.88;5.10;;;7.00;99.90;;;;;;5017852;27;89102;-30
2023/12/19 05:22:24;;;;;;;11.65;6.43;;;7.10;99.90;;;;;;5019119;27;88140;-30
2023/12/19 05:24:49;;;;;;;8.40;5.57;;;7.00;99.90;;;;;;5018334;28;90217;-32
2023/12/19 05:27:15;;;;;;;6.63;5.15;;;7.00;99.90;;;;;;5012397;27;89710;-27
2023/12/19 05:29:40;;;;;;;10.85;6.50;;;7.00;99.90;;;;;;5017936;28;88973;-29
2023/12/19 05:32:06;;;;;;;5.88;4.60;;;7.10;99.90;;;;;;5017744;28;89674;-32
2023/12/19 05:34:32;;;;;;;6.72;4.95;;;7.10;99.90;;;;;;5018970;28;89223;-28
2023/12/19 05:36:58;;;;;;;6.53;5.05;;;7.10;99.90;;;;;;5020193;27;89953;-31
2023/12/19 05:39:24;;;;;;;6.65;5.63;;;7.10;99.90;;;;;;5021549;27;90444;-29
2023/12/19 05:41:51;;;;;;;8.68;5.88;;;7.10;99.90;;;;;;5022466;27;89687;-30
2023/12/19 05:44:17;;;;;;;7.95;4.45;;;7.10;99.90;;;;;;5020964;27;90233;-29
2023/12/19 05:46:43;;;;;;;7.90;5.28;;;7.10;99.90;;;;;;5021985;27;89607;-31
2023/12/19 05:49:09;;;;;;;6.28;5.43;;;7.10;99.90;;;;;;5021346;27;90414;-30
2023/12/19 05:51:41;;;;;;;8.63;5.22;;;7.10;99.90;;;;;;5020518;28;90116;-27
2023/12/19 05:54:06;;;;;;;8.30;5.18;;;7.10;99.90;;;;;;5021259;28;90009;-28
2023/12/19 05:56:33;;;;;;;8.98;5.07;;;7.10;99.90;;;;;;5021776;28;89505;-28
2023/12/19 05:58:59;;;;;;;7.15;6.07;;;7.10;99.90;;;;;;5008417;28;89215;-30
2023/12/19 06:01:25;;;;;;;8.73;5.97;;;7.10;99.90;;;;;;5020997;27;89016;-33
2023/12/19 06:03:50;;;;;;;7.22;4.47;;;7.20;99.90;;;;;;5009198;28;90431;-31
2023/12/19 06:06:16;;;;;;;7.82;5.20;;;7.20;99.90;;;;;;5021146;28;89845;-29
2023/12/19 06:08:42;;;;;;;6.03;4.53;;;7.10;99.90;;;;;;5021287;28;89903;-31
2023/12/19 06:11:12;;;;;;;8.15;4.60;;;7.20;99.90;;;;;;5021655;27;89200;-31
2023/12/19 06:13:37;;;;;;;8.35;5.07;;;7.10;99.90;;;;;;5008950;28;90266;-29
2023/12/19 06:16:05;;;;;;;6.70;4.65;;;7.20;99.90;;;;;;5020507;28;89490;-32
2023/12/19 06:18:31;;;;;;;8.00;5.00;;;7.20;99.90;;;;;;5008978;28;89056;-31
2023/12/19 06:20:56;;;;;;;5.82;3.72;;;7.10;99.90;;;;;;5020681;27;88755;-29
2023/12/19 06:23:22;;;;;;;6.53;4.20;;;7.10;99.90;;;;;;5021780;28;89872;-28
2023/12/19 06:25:48;;;;;;;5.63;4.07;;;7.10;99.90;;;;;;5021320;27;89747;-31
2023/12/19 06:28:16;;;;;;;8.38;4.47;;;7.20;99.90;;;;;;5019310;28;88904;-28
2023/12/19 06:30:41;;;;;;;6.90;4.88;;;7.10;99.90;;;;;;5020969;28;88624;-30
2023/12/19 06:33:07;;;;;;;4.75;3.90;;;7.20;99.90;;;;;;5020863;28;90471;-31
2023/12/19 06:35:32;;;;;;;7.80;5.00;;;7.10;99.90;;;;;;5020618;28;90088;-29
2023/12/19 06:37:58;;;;;;;6.00;4.43;;;7.10;99.90;;;;;;5021449;28;89527;-30
2023/12/19 06:40:24;;;;;;;5.18;4.05;;;7.10;99.90;;;;;;5020369;28;88497;-31
2023/12/19 06:42:50;;;;;;;6.53;3.95;;;7.10;99.90;;;;;;5021335;28;90814;-29
2023/12/19 06:45:16;;;;;;;5.50;3.20;;;7.10;99.90;;;;;;5019868;27;90451;-31
2023/12/19 06:47:41;;;;;;;8.13;5.00;;;7.10;99.90;;;;;;5020605;27;89908;-28
2023/12/19 06:50:08;;;;;;;4.90;3.65;;;7.10;99.90;;;;;;5020790;28;89538;-31
2023/12/19 06:52:33;;;;;;;5.32;3.90;;;7.10;99.90;;;;;;5021257;27;89326;-30
2023/12/19 06:55:00;;;;;;;11.32;4.60;;;7.10;99.90;;;;;;5020075;27;89880;-30
2023/12/19 06:57:26;;;;;;;6.25;4.35;;;7.10;99.90;;;;;;5020755;27;89615;-28
2023/12/19 06:59:51;;;;;;;4.50;3.97;;;7.20;99.90;;;;;;5019966;28;88375;-29
2023/12/19 07:02:17;;;;;;;7.03;4.40;;;7.20;99.90;;;;;;5014983;27;89850;-30
2023/12/19 07:04:43;;;;;;;5.97;3.88;;;7.10;99.90;;;;;;5020409;28;89285;-29
2023/12/19 07:07:08;;;;;;;6.07;4.30;;;7.20;99.90;;;;;;5021084;28;89825;-29
2023/12/19 07:09:35;;;;;;;5.47;3.65;;;7.20;99.90;;;;;;5019935;27;89744;-31
2023/12/19 07:12:01;;;;;;;5.63;3.83;;;7.20;99.90;;;;;;5020322;28;90347;-28
2023/12/19 07:14:27;;;;;;;6.75;4.45;;;7.20;99.90;;;;;;5020099;28;90071;-29
2023/12/19 07:16:53;;;;;;;4.80;4.38;;;7.20;99.90;;;;;;5020323;27;87618;-29
2023/12/19 07:19:18;;;;;;;6.35;5.05;;;7.20;99.90;;;;;;5020700;28;88542;-30
2023/12/19 07:21:44;;;;;;;4.50;3.45;;;7.20;99.90;;;;;;5020666;28;90063;-30
2023/12/19 07:24:10;;;;;;;7.53;4.22;;;7.20;99.90;;;;;;5019228;27;89810;-28
2023/12/19 07:26:36;;;;;;;6.28;5.03;;;7.20;99.90;;;;;;5020412;27;89105;-30
2023/12/19 07:29:02;;;;;;;5.57;4.72;;;7.20;99.90;;;;;;5019670;27;89104;-28
2023/12/19 07:31:33;;;;;;;6.30;4.70;;;7.20;99.90;;;;;;5020264;27;90647;-28
2023/12/19 07:34:06;;;;;;;4.72;3.30;;;7.30;99.90;;;;;;5018930;27;89712;-30
2023/12/19 07:36:33;;;;;;;6.47;4.50;;;7.30;99.90;;;;;;5019220;27;90873;-31
2023/12/19 07:38:59;;;;;;;6.57;4.78;;;7.30;99.90;;;;;;5059459;22;88385;-29
2023/12/19 07:41:27;;;;;;;6.70;3.83;;;7.30;99.90;;;;;;5019908;27;91381;-27
2023/12/19 07:43:56;;;;;;;5.80;4.32;;;7.20;99.90;;;;;;5020494;27;89242;-32
2023/12/19 07:46:22;;;;;;;4.05;3.40;;;7.30;99.90;;;;;;5020182;27;90723;-28
2023/12/19 07:48:48;;;;;;;6.60;3.88;;;7.30;99.90;;;;;;5019646;27;89983;-29
2023/12/19 07:51:17;;;;;;;5.15;3.92;;;7.30;99.90;;;;;;5020163;27;89953;-31
2023/12/19 07:53:43;;;;;;;7.43;3.75;;;7.30;99.90;;;;;;5020503;27;89607;-30
2023/12/19 07:56:10;;;;;;;6.82;3.95;;;7.30;99.90;;;;;;5020876;27;90142;-28
2023/12/19 07:58:36;;;;;;;5.45;4.30;;;7.30;99.90;;;;;;5018238;28;90065;-32
2023/12/19 08:01:01;;;;;;;4.28;3.47;;;7.40;99.90;;;;;;5018684;27;89582;-27
2023/12/19 08:03:29;;;;;;;4.80;4.30;;;7.40;99.90;;;;;;5019225;28;88769;-30
2023/12/19 08:05:56;;;;;;;4.95;3.97;;;7.40;99.90;;;;;;5019675;27;90008;-28
2023/12/19 08:08:23;;;;;;;4.75;4.25;;;7.40;99.90;;;;;;5020411;27;87988;-30
2023/12/19 08:10:49;;;;;;;5.85;3.95;;;7.40;99.90;;;;;;5010246;28;89948;-27
2023/12/19 08:13:17;;;;;;;7.20;4.95;;;7.40;99.90;;;;;;5018688;27;90140;-30
2023/12/19 08:15:42;;;;;;;5.35;3.95;;;7.40;99.90;;;;;;5010435;28;90416;-28
2023/12/19 08:18:09;;;;;;;3.95;3.03;;;7.40;99.90;;;;;;5019599;27;90350;-28
2023/12/19 08:20:35;;;;;;;7.00;3.90;;;7.40;99.90;;;;;;5019427;27;89723;-29
2023/12/19 08:23:01;;;;;;;5.03;3.47;;;7.40;99.90;;;;;;5018565;27;91081;-28
2023/12/19 08:25:28;;;;;;;4.55;3.83;;;7.40;99.90;;;;;;5018687;27;89144;-32
2023/12/19 08:27:53;;;;;;;4.78;3.83;;;7.40;99.90;;;;;;5018892;27;89851;-32
2023/12/19 08:30:19;;;;;;;5.95;4.10;;;7.50;99.90;;;;;;5020306;28;90228;-30
2023/12/19 08:32:45;;;;;;;3.03;2.50;;;7.40;99.90;;;;;;5018758;27;89526;-33
2023/12/19 08:35:10;;;;;;;6.18;3.88;;;7.40;99.90;;;;;;5019415;28;90033;-29
2023/12/19 08:37:36;;;;;;;3.45;2.97;;;7.40;99.90;;;;;;5018358;28;89019;-29
2023/12/19 08:40:03;;;;;;;4.72;3.90;;;7.40;99.90;;;;;;5014522;27;90010;-32
2023/12/19 08:42:30;;;;;;;4.93;3.33;;;7.40;99.90;;;;;;5010033;28;90234;-32
2023/12/19 08:44:56;;;;;;;5.88;3.10;;;7.40;99.90;;;;;;5006900;28;90142;-29
2023/12/19 08:47:22;;;;;;;5.25;3.50;;;7.50;99.90;;;;;;5015196;28;89965;-31
2023/12/19 08:49:48;;;;;;;3.92;2.65;;;7.50;99.90;;;;;;5016335;27;90465;-30
2023/12/19 08:52:14;;;;;;;4.45;2.88;;;7.50;99.90;;;;;;5014874;28;89163;-28
2023/12/19 08:54:40;;;;;;;3.72;2.70;;;7.50;99.90;;;;;;5016240;27;89091;-32
2023/12/19 08:57:05;;;;;;;3.42;2.78;;;7.50;99.90;;;;;;5015651;28;88471;-30
2023/12/19 08:59:31;;;;;;;2.53;2.33;;;7.50;99.90;;;;;;5016351;28;90365;-31
2023/12/19 09:01:57;;;;;;;5.18;3.95;;;7.60;99.90;;;;;;5015083;27;89884;-29
2023/12/19 09:04:23;;;;;;;3.42;2.90;;;7.60;99.90;;;;;;5015563;28;89604;-28
2023/12/19 09:06:48;;;;;;;5.53;3.78;;;7.60;99.90;;;;;;5015443;28;89111;-28
2023/12/19 09:09:14;;;;;;;3.45;3.13;;;7.60;99.90;;;;;;5015085;28;90120;-27
2023/12/19 09:11:40;;;;;;;3.58;3.25;;;7.60;99.90;;;;;;5018112;27;90997;-29
2023/12/19 09:14:06;;;;;;;3.63;2.60;;;7.60;99.90;;;;;;5019852;27;89846;-28
2023/12/19 09:16:32;;;;;;;4.72;3.15;;;7.60;99.90;;;;;;5018953;27;88313;-29
2023/12/19 09:19:01;;;;;;;5.18;3.15;;;7.70;99.90;;;;;;5017278;27;89902;-29
2023/12/19 09:21:26;;;;;;;3.65;2.80;;;7.70;99.90;;;;;;5018530;28;89709;-29
2023/12/19 09:23:52;;;;;;;3.58;2.78;;;7.70;99.90;;;;;;5018726;28;89593;-29
2023/12/19 09:26:18;;;;;;;3.90;3.58;;;7.70;99.90;;;;;;5019750;27;88124;-28
2023/12/19 09:28:44;;;;;;;4.60;3.75;;;7.70;99.90;;;;;;5019752;27;88711;-31
2023/12/19 09:31:10;;;;;;;4.15;2.78;;;7.70;99.90;;;;;;5018235;27;89400;-30
2023/12/19 09:33:38;;;;;;;3.25;2.42;;;7.70;99.90;;;;;;5019720;27;89423;-31
2023/12/19 09:36:08;;;;;;;4.25;2.40;;;7.70;99.90;;;;;;5018477;28;89995;-30
2023/12/19 09:38:34;;;;;;;2.55;2.30;;;7.70;99.90;;;;;;5018121;27;90580;-28
2023/12/19 09:41:01;;;;;;;4.53;2.97;;;7.70;99.90;;;;;;5018446;27;90158;-28
2023/12/19 09:43:31;;;;;;;2.50;2.00;;;7.80;99.90;;;;;;5019141;27;89521;-30
2023/12/19 09:46:00;;;;;;;3.45;2.63;;;7.80;99.90;;;;;;5018295;27;88576;-31
2023/12/19 09:48:29;;;;;;;3.83;2.53;;;7.80;99.90;;;;;;5019643;28;90466;-28
2023/12/19 09:51:00;;;;;;;4.35;3.60;;;7.80;99.90;;;;;;5019396;28;89947;-31
2023/12/19 09:53:27;;;;;;;3.42;3.13;;;7.80;99.90;;;;;;5019612;27;90416;-32
2023/12/19 09:55:52;;;;;;;4.55;2.90;;;7.80;99.90;;;;;;5020054;27;88536;-29
2023/12/19 09:58:19;;;;;;;5.00;3.17;;;7.90;99.90;;;;;;5018658;28;90145;-28
2023/12/19 10:00:46;;;;;;;4.07;2.78;;;7.80;99.90;;;;;;5018396;27;90492;-28
2023/12/19 10:03:11;;;;;;;2.92;2.50;;;7.90;99.90;;;;;;5018503;28;91311;-30
2023/12/19 10:05:37;;;;;;;4.25;3.42;;;7.90;99.90;;;;;;5018900;27;88579;-29
2023/12/19 10:08:03;;;;;;;3.55;3.10;;;7.90;99.90;;;;;;5018061;27;90064;-30
2023/12/19 10:10:55;;;;;;;5.47;3.28;;;7.90;99.90;;;;;;5018029;27;89675;-32
2023/12/19 10:13:31;;;;;;;3.70;2.35;;;7.90;99.90;;;;;;5018696;27;88965;-31
2023/12/19 10:16:04;;;;;;;3.45;2.58;;;8.00;99.90;;;;;;5017915;28;88867;-30
2023/12/19 10:18:30;;;;;;;3.63;3.08;;;8.00;99.90;;;;;;5018732;27;90786;-30
2023/12/19 10:21:14;;;;;;;3.03;2.70;;;8.00;99.90;;;;;;5017801;27;90618;-31
2023/12/19 10:23:43;;;;;;;3.67;3.00;;;8.00;99.90;;;;;;5014023;28;89812;-33
2023/12/19 10:26:10;;;;;;;4.05;2.92;;;8.00;99.90;;;;;;5015838;27;90116;-32
2023/12/19 10:28:38;;;;;;;3.38;3.08;;;8.10;99.90;;;;;;5008575;28;90552;-29
2023/12/19 10:31:12;;;;;;;;;;;8.10;99.90;;;;;;5017535;27;89658;-30
2023/12/19 10:33:49;;;;;;;4.88;3.40;;;8.10;99.90;;;;;;5020329;28;88834;-33
2023/12/19 10:36:28;;;;;;;5.22;4.05;;;8.10;99.90;;;;;;5018704;27;89265;-30
2023/12/19 10:38:59;;;;;;;5.78;4.22;;;8.10;99.90;;;;;;4998850;28;92169;-29
2023/12/19 10:41:30;;;;;;;5.20;4.15;;;8.20;99.90;;;;;;5018465;27;89657;-30
2023/12/19 10:43:57;;;;;;;6.88;4.18;;;8.20;99.90;;;;;;5017939;28;89606;-31
2023/12/19 10:46:26;;;;;;;6.83;5.07;;;8.20;99.90;;;;;;5018024;27;88868;-29
2023/12/19 10:48:58;;;;;;;7.15;4.63;;;8.20;99.90;;;;;;5018514;27;90284;-29
2023/12/19 10:51:37;;;;;;;7.90;4.63;;;8.20;99.90;;;;;;5018057;27;90177;-32
2023/12/19 10:54:14;;;;;;;7.00;5.03;;;8.20;99.90;;;;;;5017826;28;89173;-31
2023/12/19 10:56:59;;;;;;;6.90;5.78;;;8.30;99.90;;;;;;5017323;27;89909;-29
2023/12/19 10:59:49;;;;;;;6.38;5.65;;;8.30;99.90;;;;;;5014534;28;90276;-28
2023/12/19 11:02:53;;;;;;;5.95;4.80;;;8.30;99.90;;;;;;5002240;28;89503;-31
2023/12/19 11:05:33;;;;;;;7.30;5.75;;;8.40;99.90;;;;;;5015846;28;89362;-30
2023/12/19 11:08:03;;;;;;;7.10;5.35;;;8.40;99.90;;;;;;5015613;27;88299;-28
2023/12/19 11:10:32;;;;;;;7.35;5.60;;;8.40;99.90;;;;;;5017746;27;90149;-31
2023/12/19 11:12:58;;;;;;;9.60;6.20;;;8.50;99.90;;;;;;5017071;27;90581;-28
2023/12/19 11:15:27;;;;;;;8.20;5.50;;;8.50;99.90;;;;;;5017847;27;89036;-32
2023/12/19 11:18:05;;;;;;;8.18;5.50;;;8.50;99.90;;;;;;5017544;28;89644;-31
2023/12/19 11:20:39;;;;;;;6.95;5.80;;;8.50;99.90;;;;;;5018501;27;90273;-29
2023/12/19 11:23:34;;;;;;;7.43;5.88;;;8.50;99.90;;;;;;5016571;27;89757;-30
2023/12/19 11:26:17;;;;;;;7.22;5.63;;;8.50;99.90;;;;;;5017649;27;89194;-29
2023/12/19 11:28:43;;;;;;;8.48;6.85;;;8.50;99.90;;;;;;5015917;27;89812;-29
2023/12/19 11:31:35;;;;;;;11.82;5.43;;;8.50;99.90;;;;;;5017405;28;90558;-30
2023/12/19 11:34:23;;;;;;;9.80;6.68;;;8.50;99.90;;;;;;5016732;27;89399;-32
2023/12/19 11:37:04;;;;;;;8.15;5.93;;;8.50;99.90;;;;;;5017163;27;89585;-28
2023/12/19 11:39:31;;;;;;;8.77;6.90;;;8.60;99.90;;;;;;5016448;27;89371;-30
2023/12/19 11:41:57;;;;;;;8.05;6.75;;;8.60;99.90;;;;;;5016644;27;89894;-31
2023/12/19 11:44:32;;;;;;;7.75;5.53;;;8.60;99.90;;;;;;5016260;27;90564;-30
2023/12/19 11:47:18;;;;;;;8.00;6.05;;;8.60;99.90;;;;;;5017225;27;90713;-28
2023/12/19 11:49:44;;;;;;;6.57;5.32;;;8.60;99.90;;;;;;5011632;28;89133;-31
2023/12/19 11:52:33;;;;;;;9.55;6.65;;;8.60;99.90;;;;;;5016833;27;89743;-31
2023/12/19 11:55:01;;;;;;;10.00;6.00;;;8.60;99.90;;;;;;5015572;28;89218;-30
2023/12/19 11:57:27;;;;;;;;;;;8.60;99.90;;;;;;5018205;27;88864;-28
2023/12/19 11:59:54;;;;;;;8.85;6.93;;;8.60;99.90;;;;;;5019015;27;88849;-34
2023/12/19 12:02:27;;;;;;;9.45;6.90;;;8.60;99.90;;;;;;5017076;27;88717;-31
2023/12/19 12:05:07;;;;;;;8.73;6.82;;;8.60;99.90;;;;;;5016408;27;89296;-33
2023/12/19 12:07:32;;;;;;;12.73;7.85;;;8.60;99.90;;;;;;5015773;28;88914;-31
2023/12/19 12:10:06;;;;;;;12.23;7.22;;;8.60;99.90;;;;;;5017240;27;90243;-32
2023/12/19 12:12:35;;;;;;;10.65;6.40;;;8.60;99.90;;;;;;5004620;28;90539;-30
2023/12/19 12:15:11;;;;;;;7.63;6.72;;;8.60;99.90;;;;;;5016005;27;89630;-30
2023/12/19 12:17:37;;;;;;;10.95;6.78;;;8.60;99.90;;;;;;5017068;28;90027;-31
2023/12/19 12:20:06;;;;;;;12.90;7.25;;;8.60;99.90;;;;;;5017659;27;89722;-31
2023/12/19 12:22:32;;;;;;;10.18;7.05;;;8.60;99.90;;;;;;5016122;27;89890;-28
2023/12/19 12:24:59;;;;;;;8.43;6.50;;;8.70;99.90;;;;;;5014973;28;89186;-28
2023/12/19 12:27:26;;;;;;;9.55;6.82;;;8.70;99.90;;;;;;5017181;27;89180;-32
2023/12/19 12:29:52;;;;;;;9.35;6.43;;;8.70;99.90;;;;;;5017578;27;88994;-28
2023/12/19 12:32:18;;;;;;;8.73;5.55;;;8.60;99.90;;;;;;5016741;27;89672;-29
2023/12/19 12:34:44;;;;;;;9.98;7.43;;;8.70;99.90;;;;;;5016800;27;90968;-31
2023/12/19 12:37:10;;;;;;;8.80;6.72;;;8.70;99.90;;;;;;5016005;28;90197;-28
2023/12/19 12:39:36;;;;;;;7.00;5.88;;;8.70;99.90;;;;;;5016292;27;88933;-31
2023/12/19 12:42:06;;;;;;;7.10;5.45;;;8.70;99.90;;;;;;5016319;28;90156;-33
2023/12/19 12:44:32;;;;;;;10.30;7.35;;;8.70;99.90;;;;;;5016154;27;90713;-28
2023/12/19 12:46:59;;;;;;;10.30;6.10;;;8.70;99.90;;;;;;5015870;27;89356;-31
2023/12/19 12:49:26;;;;;;;10.23;5.68;;;8.70;99.90;;;;;;5017132;27;89108;-29
2023/12/19 12:51:56;;;;;;;8.20;5.93;;;8.70;99.90;;;;;;5016091;27;90433;-30